sensor_id;sensor_type;location;lat;lon;timestamp;temperature;humidity
10530;DHT22;5313;48.834;9.228;2023-06-14T00:00:39;16.10;99.90
10530;DHT22;5313;48.834;9.228;2023-06-14T00:03:07;16.00;99.90
10530;DHT22;5313;48.834;9.228;2023-06-14T00:05:35;15.70;99.90
10530;DHT22;5313;48.834;9.228;2023-06-14T00:08:06;15.40;99.90
10530;DHT22;5313;48.834;9.228;2023-06-14T00:10:34;15.40;99.90
10530;DHT22;5313;48.834;9.228;2023-06-14T00:13:03;14.80;99.90
10530;DHT22;5313;48.834;9.228;2023-06-14T00:15:33;14.60;99.90
10530;DHT22;5313;48.834;9.228;2023-06-14T00:17:59;14.90;99.90
10530;DHT22;5313;48.834;9.228;2023-06-14T00:20:30;15.10;99.90
10530;DHT22;5313;48.834;9.228;2023-06-14T00:23:02;15.20;99.90
10530;DHT22;5313;48.834;9.228;2023-06-14T00:25:28;15.30;99.90
10530;DHT22;5313;48.834;9.228;2023-06-14T00:27:55;15.50;99.90
10530;DHT22;5313;48.834;9.228;2023-06-14T00:30:21;15.50;99.90
10530;DHT22;5313;48.834;9.228;2023-06-14T00:32:47;15.50;99.90
10530;DHT22;5313;48.834;9.228;2023-06-14T00:35:13;15.40;99.90
10530;DHT22;5313;48.834;9.228;2023-06-14T00:37:39;15.10;99.90
10530;DHT22;5313;48.834;9.228;2023-06-14T00:40:05;15.00;99.90
10530;DHT22;5313;48.834;9.228;2023-06-14T00:42:31;15.00;99.90
10530;DHT22;5313;48.834;9.228;2023-06-14T00:44:57;15.00;99.90
10530;DHT22;5313;48.834;9.228;2023-06-14T00:47:23;15.00;99.90
10530;DHT22;5313;48.834;9.228;2023-06-14T00:49:50;15.10;99.90
10530;DHT22;5313;48.834;9.228;2023-06-14T00:52:19;15.20;99.90
10530;DHT22;5313;48.834;9.228;2023-06-14T00:54:44;15.10;99.90
10530;DHT22;5313;48.834;9.228;2023-06-14T00:57:11;15.00;99.90
10530;DHT22;5313;48.834;9.228;2023-06-14T00:59:44;15.00;99.90
10530;DHT22;5313;48.834;9.228;2023-06-14T01:02:10;14.90;99.90
10530;DHT22;5313;48.834;9.228;2023-06-14T01:04:37;14.80;99.90
10530;DHT22;5313;48.834;9.228;2023-06-14T01:10:15;14.30;99.90
10530;DHT22;5313;48.834;9.228;2023-06-14T01:12:57;14.20;99.90
10530;DHT22;5313;48.834;9.228;2023-06-14T01:15:24;14.10;99.90
10530;DHT22;5313;48.834;9.228;2023-06-14T01:17:51;13.80;99.90
10530;DHT22;5313;48.834;9.228;2023-06-14T01:20:18;14.00;99.90
10530;DHT22;5313;48.834;9.228;2023-06-14T01:22:52;14.10;99.90
10530;DHT22;5313;48.834;9.228;2023-06-14T01:25:22;14.00;99.90
10530;DHT22;5313;48.834;9.228;2023-06-14T01:28:01;14.00;99.90
10530;DHT22;5313;48.834;9.228;2023-06-14T01:30:29;14.00;99.90
10530;DHT22;5313;48.834;9.228;2023-06-14T01:32:56;14.10;99.90
10530;DHT22;5313;48.834;9.228;2023-06-14T01:35:22;14.30;99.90
10530;DHT22;5313;48.834;9.228;2023-06-14T01:37:49;14.30;99.90
10530;DHT22;5313;48.834;9.228;2023-06-14T01:40:16;14.30;99.90
10530;DHT22;5313;48.834;9.228;2023-06-14T01:42:43;16.90;99.90
10530;DHT22;5313;48.834;9.228;2023-06-14T01:45:10;14.20;99.90
10530;DHT22;5313;48.834;9.228;2023-06-14T01:47:36;14.30;99.90
10530;DHT22;5313;48.834;9.228;2023-06-14T01:50:03;14.20;99.90
10530;DHT22;5313;48.834;9.228;2023-06-14T01:52:29;14.10;99.90
10530;DHT22;5313;48.834;9.228;2023-06-14T01:54:54;14.10;99.90
10530;DHT22;5313;48.834;9.228;2023-06-14T01:57:21;14.20;99.90
10530;DHT22;5313;48.834;9.228;2023-06-14T01:59:47;14.00;99.90
10530;DHT22;5313;48.834;9.228;2023-06-14T02:02:14;13.90;99.90
10530;DHT22;5313;48.834;9.228;2023-06-14T02:04:40;14.00;99.90
10530;DHT22;5313;48.834;9.228;2023-06-14T02:07:06;13.90;99.90
10530;DHT22;5313;48.834;9.228;2023-06-14T02:09:32;13.90;99.90
10530;DHT22;5313;48.834;9.228;2023-06-14T02:11:57;14.00;99.90
10530;DHT22;5313;48.834;9.228;2023-06-14T02:14:23;14.00;99.90
10530;DHT22;5313;48.834;9.228;2023-06-14T02:16:49;13.90;99.90
10530;DHT22;5313;48.834;9.228;2023-06-14T02:19:19;13.90;99.90
10530;DHT22;5313;48.834;9.228;2023-06-14T02:21:45;13.90;99.90
10530;DHT22;5313;48.834;9.228;2023-06-14T02:24:10;13.90;99.90
10530;DHT22;5313;48.834;9.228;2023-06-14T02:26:36;13.90;99.90
10530;DHT22;5313;48.834;9.228;2023-06-14T02:29:06;13.90;99.90
10530;DHT22;5313;48.834;9.228;2023-06-14T02:31:35;13.90;99.90
10530;DHT22;5313;48.834;9.228;2023-06-14T02:34:01;14.00;99.90
10530;DHT22;5313;48.834;9.228;2023-06-14T02:36:26;14.00;99.90
10530;DHT22;5313;48.834;9.228;2023-06-14T02:38:52;13.90;99.90
10530;DHT22;5313;48.834;9.228;2023-06-14T02:41:19;13.80;99.90
10530;DHT22;5313;48.834;9.228;2023-06-14T02:43:45;13.80;99.90
10530;DHT22;5313;48.834;9.228;2023-06-14T02:46:10;13.70;99.90
10530;DHT22;5313;48.834;9.228;2023-06-14T02:48:36;13.70;99.90
10530;DHT22;5313;48.834;9.228;2023-06-14T02:51:02;14.50;99.90
10530;DHT22;5313;48.834;9.228;2023-06-14T02:53:27;16.30;99.90
10530;DHT22;5313;48.834;9.228;2023-06-14T02:55:53;17.60;99.90
10530;DHT22;5313;48.834;9.228;2023-06-14T02:58:20;18.50;99.90
10530;DHT22;5313;48.834;9.228;2023-06-14T03:00:46;18.60;99.90
10530;DHT22;5313;48.834;9.228;2023-06-14T03:03:12;17.20;99.90
10530;DHT22;5313;48.834;9.228;2023-06-14T03:05:44;16.70;99.90
10530;DHT22;5313;48.834;9.228;2023-06-14T03:08:15;16.50;99.90
10530;DHT22;5313;48.834;9.228;2023-06-14T03:10:43;16.00;99.90
10530;DHT22;5313;48.834;9.228;2023-06-14T03:13:08;16.10;99.90
10530;DHT22;5313;48.834;9.228;2023-06-14T03:15:36;17.10;99.90
10530;DHT22;5313;48.834;9.228;2023-06-14T03:18:01;17.20;99.90
10530;DHT22;5313;48.834;9.228;2023-06-14T03:20:27;16.80;99.90
10530;DHT22;5313;48.834;9.228;2023-06-14T03:22:54;16.50;99.90
10530;DHT22;5313;48.834;9.228;2023-06-14T03:25:19;16.30;99.90
10530;DHT22;5313;48.834;9.228;2023-06-14T03:27:47;16.20;99.90
10530;DHT22;5313;48.834;9.228;2023-06-14T03:30:13;15.70;99.90
10530;DHT22;5313;48.834;9.228;2023-06-14T03:32:38;16.10;99.90
10530;DHT22;5313;48.834;9.228;2023-06-14T03:35:04;15.30;99.90
10530;DHT22;5313;48.834;9.228;2023-06-14T03:37:30;15.90;99.90
10530;DHT22;5313;48.834;9.228;2023-06-14T03:39:56;15.80;99.90
10530;DHT22;5313;48.834;9.228;2023-06-14T03:42:21;15.90;99.90
10530;DHT22;5313;48.834;9.228;2023-06-14T03:44:46;15.60;99.90
10530;DHT22;5313;48.834;9.228;2023-06-14T03:47:12;15.70;99.90
10530;DHT22;5313;48.834;9.228;2023-06-14T03:49:37;15.90;99.90
10530;DHT22;5313;48.834;9.228;2023-06-14T03:52:03;16.50;99.90
10530;DHT22;5313;48.834;9.228;2023-06-14T03:54:29;16.40;99.90
10530;DHT22;5313;48.834;9.228;2023-06-14T03:56:54;16.10;99.90
10530;DHT22;5313;48.834;9.228;2023-06-14T03:59:22;16.80;99.90
10530;DHT22;5313;48.834;9.228;2023-06-14T04:01:48;16.80;99.90
10530;DHT22;5313;48.834;9.228;2023-06-14T04:04:14;16.50;99.90
10530;DHT22;5313;48.834;9.228;2023-06-14T04:06:41;16.60;99.90
10530;DHT22;5313;48.834;9.228;2023-06-14T04:09:08;17.40;99.90
10530;DHT22;5313;48.834;9.228;2023-06-14T04:11:33;17.80;99.90
10530;DHT22;5313;48.834;9.228;2023-06-14T04:13:59;18.30;99.90
10530;DHT22;5313;48.834;9.228;2023-06-14T04:16:25;18.00;99.90
10530;DHT22;5313;48.834;9.228;2023-06-14T04:18:51;18.20;99.90
10530;DHT22;5313;48.834;9.228;2023-06-14T04:21:18;18.10;99.90
10530;DHT22;5313;48.834;9.228;2023-06-14T04:23:43;18.10;99.90
10530;DHT22;5313;48.834;9.228;2023-06-14T04:26:09;17.30;99.90
10530;DHT22;5313;48.834;9.228;2023-06-14T04:28:36;16.80;99.90
10530;DHT22;5313;48.834;9.228;2023-06-14T04:31:06;16.90;99.90
10530;DHT22;5313;48.834;9.228;2023-06-14T04:33:37;17.30;99.90
10530;DHT22;5313;48.834;9.228;2023-06-14T04:36:12;17.70;99.90
10530;DHT22;5313;48.834;9.228;2023-06-14T04:38:39;18.00;99.90
10530;DHT22;5313;48.834;9.228;2023-06-14T04:41:04;17.90;99.90
10530;DHT22;5313;48.834;9.228;2023-06-14T04:43:31;18.00;99.90
10530;DHT22;5313;48.834;9.228;2023-06-14T04:45:57;17.00;99.90
10530;DHT22;5313;48.834;9.228;2023-06-14T04:48:22;16.10;99.90
10530;DHT22;5313;48.834;9.228;2023-06-14T04:50:48;15.20;99.90
10530;DHT22;5313;48.834;9.228;2023-06-14T04:53:18;14.70;99.90
10530;DHT22;5313;48.834;9.228;2023-06-14T04:55:47;14.40;99.90
10530;DHT22;5313;48.834;9.228;2023-06-14T04:58:12;14.20;99.90
10530;DHT22;5313;48.834;9.228;2023-06-14T05:00:38;14.00;99.90
10530;DHT22;5313;48.834;9.228;2023-06-14T05:03:03;13.90;99.90
10530;DHT22;5313;48.834;9.228;2023-06-14T05:05:31;14.10;99.90
10530;DHT22;5313;48.834;9.228;2023-06-14T05:07:57;14.10;99.90
10530;DHT22;5313;48.834;9.228;2023-06-14T05:10:24;14.20;99.90
10530;DHT22;5313;48.834;9.228;2023-06-14T05:12:49;14.40;99.90
10530;DHT22;5313;48.834;9.228;2023-06-14T05:15:15;14.60;99.90
10530;DHT22;5313;48.834;9.228;2023-06-14T05:17:41;14.70;99.90
10530;DHT22;5313;48.834;9.228;2023-06-14T05:20:07;14.80;99.90
10530;DHT22;5313;48.834;9.228;2023-06-14T05:22:35;14.80;99.90
10530;DHT22;5313;48.834;9.228;2023-06-14T05:25:01;14.90;99.90
10530;DHT22;5313;48.834;9.228;2023-06-14T05:27:27;14.90;99.90
10530;DHT22;5313;48.834;9.228;2023-06-14T05:29:52;15.00;99.90
10530;DHT22;5313;48.834;9.228;2023-06-14T05:32:21;15.10;99.90
10530;DHT22;5313;48.834;9.228;2023-06-14T05:34:46;15.10;99.90
10530;DHT22;5313;48.834;9.228;2023-06-14T05:37:12;15.20;99.90
10530;DHT22;5313;48.834;9.228;2023-06-14T05:39:38;15.40;99.90
10530;DHT22;5313;48.834;9.228;2023-06-14T05:42:04;15.50;99.90
10530;DHT22;5313;48.834;9.228;2023-06-14T05:44:29;15.60;99.90
10530;DHT22;5313;48.834;9.228;2023-06-14T05:46:55;15.60;99.90
10530;DHT22;5313;48.834;9.228;2023-06-14T05:49:20;15.60;99.90
10530;DHT22;5313;48.834;9.228;2023-06-14T05:51:46;15.70;99.90
10530;DHT22;5313;48.834;9.228;2023-06-14T05:54:11;15.90;99.90
10530;DHT22;5313;48.834;9.228;2023-06-14T05:56:37;16.00;99.90
10530;DHT22;5313;48.834;9.228;2023-06-14T05:59:02;16.10;99.90
10530;DHT22;5313;48.834;9.228;2023-06-14T06:01:28;16.10;99.90
10530;DHT22;5313;48.834;9.228;2023-06-14T06:03:53;16.40;99.90
10530;DHT22;5313;48.834;9.228;2023-06-14T06:06:19;16.40;99.90
10530;DHT22;5313;48.834;9.228;2023-06-14T06:08:44;16.50;99.90
10530;DHT22;5313;48.834;9.228;2023-06-14T06:11:10;16.50;99.90
10530;DHT22;5313;48.834;9.228;2023-06-14T06:13:36;16.60;99.90
10530;DHT22;5313;48.834;9.228;2023-06-14T06:16:02;16.80;99.90
10530;DHT22;5313;48.834;9.228;2023-06-14T06:18:28;16.80;99.90
10530;DHT22;5313;48.834;9.228;2023-06-14T06:20:53;17.00;99.90
10530;DHT22;5313;48.834;9.228;2023-06-14T06:23:19;17.00;99.90
10530;DHT22;5313;48.834;9.228;2023-06-14T06:25:44;17.10;99.90
10530;DHT22;5313;48.834;9.228;2023-06-14T06:28:10;17.30;99.90
10530;DHT22;5313;48.834;9.228;2023-06-14T06:30:36;17.40;99.90
10530;DHT22;5313;48.834;9.228;2023-06-14T06:33:02;17.40;99.90
10530;DHT22;5313;48.834;9.228;2023-06-14T06:35:28;17.50;99.90
10530;DHT22;5313;48.834;9.228;2023-06-14T06:37:55;17.60;99.90
10530;DHT22;5313;48.834;9.228;2023-06-14T06:40:20;17.70;99.90
10530;DHT22;5313;48.834;9.228;2023-06-14T06:42:46;17.70;99.90
10530;DHT22;5313;48.834;9.228;2023-06-14T06:45:12;17.60;99.90
10530;DHT22;5313;48.834;9.228;2023-06-14T06:47:37;17.80;99.90
10530;DHT22;5313;48.834;9.228;2023-06-14T06:50:03;17.90;99.90
10530;DHT22;5313;48.834;9.228;2023-06-14T06:52:28;18.00;99.90
10530;DHT22;5313;48.834;9.228;2023-06-14T06:54:54;18.30;99.90
10530;DHT22;5313;48.834;9.228;2023-06-14T06:57:21;18.40;99.90
10530;DHT22;5313;48.834;9.228;2023-06-14T06:59:49;18.40;99.90
10530;DHT22;5313;48.834;9.228;2023-06-14T07:02:16;18.30;99.90
10530;DHT22;5313;48.834;9.228;2023-06-14T07:04:41;18.60;99.90
10530;DHT22;5313;48.834;9.228;2023-06-14T07:07:07;18.70;99.90
10530;DHT22;5313;48.834;9.228;2023-06-14T07:09:34;18.90;99.90
10530;DHT22;5313;48.834;9.228;2023-06-14T07:12:00;19.00;99.90
10530;DHT22;5313;48.834;9.228;2023-06-14T07:14:25;19.00;99.90
10530;DHT22;5313;48.834;9.228;2023-06-14T07:16:51;19.00;99.90
10530;DHT22;5313;48.834;9.228;2023-06-14T07:19:17;19.00;99.90
10530;DHT22;5313;48.834;9.228;2023-06-14T07:21:42;19.00;99.90
10530;DHT22;5313;48.834;9.228;2023-06-14T07:24:08;19.10;99.90
10530;DHT22;5313;48.834;9.228;2023-06-14T07:26:34;19.10;99.90
10530;DHT22;5313;48.834;9.228;2023-06-14T07:29:00;19.00;99.90
10530;DHT22;5313;48.834;9.228;2023-06-14T07:31:26;19.10;99.90
10530;DHT22;5313;48.834;9.228;2023-06-14T07:33:51;19.10;99.90
10530;DHT22;5313;48.834;9.228;2023-06-14T07:36:17;19.30;99.90
10530;DHT22;5313;48.834;9.228;2023-06-14T07:38:43;19.30;99.90
10530;DHT22;5313;48.834;9.228;2023-06-14T07:41:08;19.50;99.90
10530;DHT22;5313;48.834;9.228;2023-06-14T07:43:34;19.70;99.90
10530;DHT22;5313;48.834;9.228;2023-06-14T07:46:00;19.90;99.90
10530;DHT22;5313;48.834;9.228;2023-06-14T07:48:26;19.90;99.90
10530;DHT22;5313;48.834;9.228;2023-06-14T07:50:51;20.10;99.90
10530;DHT22;5313;48.834;9.228;2023-06-14T07:53:17;20.10;99.90
10530;DHT22;5313;48.834;9.228;2023-06-14T07:55:42;20.30;99.90
10530;DHT22;5313;48.834;9.228;2023-06-14T07:58:08;20.30;99.90
10530;DHT22;5313;48.834;9.228;2023-06-14T08:00:34;20.30;99.90
10530;DHT22;5313;48.834;9.228;2023-06-14T08:03:00;20.30;99.90
10530;DHT22;5313;48.834;9.228;2023-06-14T08:05:26;20.50;99.90
10530;DHT22;5313;48.834;9.228;2023-06-14T08:07:52;20.40;99.90
10530;DHT22;5313;48.834;9.228;2023-06-14T08:10:18;20.60;99.90
10530;DHT22;5313;48.834;9.228;2023-06-14T08:12:43;20.90;99.90
10530;DHT22;5313;48.834;9.228;2023-06-14T08:15:10;21.10;99.90
10530;DHT22;5313;48.834;9.228;2023-06-14T08:17:35;21.20;99.90
10530;DHT22;5313;48.834;9.228;2023-06-14T08:20:01;21.20;99.90
10530;DHT22;5313;48.834;9.228;2023-06-14T08:22:29;21.20;99.90
10530;DHT22;5313;48.834;9.228;2023-06-14T08:24:57;21.20;99.90
10530;DHT22;5313;48.834;9.228;2023-06-14T08:27:23;21.00;99.90
10530;DHT22;5313;48.834;9.228;2023-06-14T08:29:48;21.00;99.90
10530;DHT22;5313;48.834;9.228;2023-06-14T08:32:14;21.10;99.90
10530;DHT22;5313;48.834;9.228;2023-06-14T08:34:40;21.30;99.90
10530;DHT22;5313;48.834;9.228;2023-06-14T08:37:05;21.00;99.90
10530;DHT22;5313;48.834;9.228;2023-06-14T08:39:31;21.20;99.90
10530;DHT22;5313;48.834;9.228;2023-06-14T08:41:57;21.40;99.90
10530;DHT22;5313;48.834;9.228;2023-06-14T08:44:23;21.20;99.90
10530;DHT22;5313;48.834;9.228;2023-06-14T08:46:50;21.10;99.90
10530;DHT22;5313;48.834;9.228;2023-06-14T08:49:17;21.20;99.90
10530;DHT22;5313;48.834;9.228;2023-06-14T08:51:43;21.20;99.90
10530;DHT22;5313;48.834;9.228;2023-06-14T08:54:11;21.40;99.90
10530;DHT22;5313;48.834;9.228;2023-06-14T08:56:38;21.40;99.90
10530;DHT22;5313;48.834;9.228;2023-06-14T08:59:04;21.40;99.90
10530;DHT22;5313;48.834;9.228;2023-06-14T09:01:36;21.40;99.90
10530;DHT22;5313;48.834;9.228;2023-06-14T09:04:03;21.60;99.90
10530;DHT22;5313;48.834;9.228;2023-06-14T09:06:31;21.80;99.90
10530;DHT22;5313;48.834;9.228;2023-06-14T09:08:57;21.90;99.70
10530;DHT22;5313;48.834;9.228;2023-06-14T09:11:22;22.10;99.90
10530;DHT22;5313;48.834;9.228;2023-06-14T09:13:49;22.00;98.50
10530;DHT22;5313;48.834;9.228;2023-06-14T09:16:15;22.00;99.40
10530;DHT22;5313;48.834;9.228;2023-06-14T09:18:43;21.90;99.10
10530;DHT22;5313;48.834;9.228;2023-06-14T09:21:13;22.00;97.90
10530;DHT22;5313;48.834;9.228;2023-06-14T09:23:46;22.10;97.20
10530;DHT22;5313;48.834;9.228;2023-06-14T09:26:17;22.20;97.50
10530;DHT22;5313;48.834;9.228;2023-06-14T09:28:47;22.40;97.50
10530;DHT22;5313;48.834;9.228;2023-06-14T09:31:15;22.50;96.70
10530;DHT22;5313;48.834;9.228;2023-06-14T09:33:48;22.30;96.50
10530;DHT22;5313;48.834;9.228;2023-06-14T09:36:21;22.60;97.10
10530;DHT22;5313;48.834;9.228;2023-06-14T09:38:59;22.90;98.40
10530;DHT22;5313;48.834;9.228;2023-06-14T09:44:02;23.10;92.00
10530;DHT22;5313;48.834;9.228;2023-06-14T09:46:29;23.20;94.40
10530;DHT22;5313;48.834;9.228;2023-06-14T09:48:55;23.20;91.10
10530;DHT22;5313;48.834;9.228;2023-06-14T09:51:23;23.50;90.50
10530;DHT22;5313;48.834;9.228;2023-06-14T09:53:50;23.50;86.40
10530;DHT22;5313;48.834;9.228;2023-06-14T09:56:37;23.60;82.90
10530;DHT22;5313;48.834;9.228;2023-06-14T09:59:09;23.60;82.50
10530;DHT22;5313;48.834;9.228;2023-06-14T10:01:36;23.90;88.90
10530;DHT22;5313;48.834;9.228;2023-06-14T10:04:06;24.10;86.30
10530;DHT22;5313;48.834;9.228;2023-06-14T10:06:36;24.10;85.40
10530;DHT22;5313;48.834;9.228;2023-06-14T10:09:04;24.00;86.90
10530;DHT22;5313;48.834;9.228;2023-06-14T10:11:31;23.60;86.40
10530;DHT22;5313;48.834;9.228;2023-06-14T10:13:58;23.80;85.20
10530;DHT22;5313;48.834;9.228;2023-06-14T10:16:42;23.70;88.30
10530;DHT22;5313;48.834;9.228;2023-06-14T10:19:19;23.30;83.40
10530;DHT22;5313;48.834;9.228;2023-06-14T10:21:58;23.00;82.70
10530;DHT22;5313;48.834;9.228;2023-06-14T10:24:32;23.60;80.00
10530;DHT22;5313;48.834;9.228;2023-06-14T10:26:58;23.80;75.90
10530;DHT22;5313;48.834;9.228;2023-06-14T10:29:28;23.90;76.50
10530;DHT22;5313;48.834;9.228;2023-06-14T10:31:58;24.20;76.00
10530;DHT22;5313;48.834;9.228;2023-06-14T10:34:25;24.70;71.60
10530;DHT22;5313;48.834;9.228;2023-06-14T10:37:05;24.80;70.90
10530;DHT22;5313;48.834;9.228;2023-06-14T10:39:37;24.10;70.10
10530;DHT22;5313;48.834;9.228;2023-06-14T10:42:03;24.10;72.70
10530;DHT22;5313;48.834;9.228;2023-06-14T10:44:37;24.60;71.70
10530;DHT22;5313;48.834;9.228;2023-06-14T10:47:23;25.00;71.20
10530;DHT22;5313;48.834;9.228;2023-06-14T10:50:12;24.90;69.00
10530;DHT22;5313;48.834;9.228;2023-06-14T10:52:41;25.40;67.50
10530;DHT22;5313;48.834;9.228;2023-06-14T10:55:19;25.10;64.50
10530;DHT22;5313;48.834;9.228;2023-06-14T10:57:48;25.10;65.70
10530;DHT22;5313;48.834;9.228;2023-06-14T11:00:22;24.30;67.50
10530;DHT22;5313;48.834;9.228;2023-06-14T11:05:54;24.70;69.20
10530;DHT22;5313;48.834;9.228;2023-06-14T11:08:51;24.60;67.60
10530;DHT22;5313;48.834;9.228;2023-06-14T11:11:22;25.10;66.70
10530;DHT22;5313;48.834;9.228;2023-06-14T11:13:51;25.20;67.10
10530;DHT22;5313;48.834;9.228;2023-06-14T11:16:17;25.10;67.30
10530;DHT22;5313;48.834;9.228;2023-06-14T11:18:46;25.50;64.40
10530;DHT22;5313;48.834;9.228;2023-06-14T11:21:15;25.60;65.10
10530;DHT22;5313;48.834;9.228;2023-06-14T11:23:41;25.50;61.60
10530;DHT22;5313;48.834;9.228;2023-06-14T11:26:07;25.60;61.30
10530;DHT22;5313;48.834;9.228;2023-06-14T11:28:40;25.80;59.90
10530;DHT22;5313;48.834;9.228;2023-06-14T11:31:06;26.60;56.60
10530;DHT22;5313;48.834;9.228;2023-06-14T11:33:32;26.90;56.10
10530;DHT22;5313;48.834;9.228;2023-06-14T11:35:58;26.70;56.50
10530;DHT22;5313;48.834;9.228;2023-06-14T11:38:24;26.20;55.90
10530;DHT22;5313;48.834;9.228;2023-06-14T11:40:50;26.20;57.80
10530;DHT22;5313;48.834;9.228;2023-06-14T11:43:15;25.50;56.60
10530;DHT22;5313;48.834;9.228;2023-06-14T11:45:42;25.10;57.50
10530;DHT22;5313;48.834;9.228;2023-06-14T11:48:08;24.30;59.20
10530;DHT22;5313;48.834;9.228;2023-06-14T11:50:38;24.10;60.90
10530;DHT22;5313;48.834;9.228;2023-06-14T11:53:04;23.70;61.70
10530;DHT22;5313;48.834;9.228;2023-06-14T11:55:38;23.60;61.70
10530;DHT22;5313;48.834;9.228;2023-06-14T11:58:04;23.60;62.00
10530;DHT22;5313;48.834;9.228;2023-06-14T12:00:30;23.70;62.80
10530;DHT22;5313;48.834;9.228;2023-06-14T12:02:56;23.90;61.50
10530;DHT22;5313;48.834;9.228;2023-06-14T12:05:23;24.60;61.20
10530;DHT22;5313;48.834;9.228;2023-06-14T12:07:49;25.70;58.50
10530;DHT22;5313;48.834;9.228;2023-06-14T12:10:16;26.60;56.10
10530;DHT22;5313;48.834;9.228;2023-06-14T12:12:42;26.70;56.00
10530;DHT22;5313;48.834;9.228;2023-06-14T12:15:08;26.20;56.30
10530;DHT22;5313;48.834;9.228;2023-06-14T12:17:35;26.20;56.60
10530;DHT22;5313;48.834;9.228;2023-06-14T12:20:12;26.70;55.40
10530;DHT22;5313;48.834;9.228;2023-06-14T12:22:54;27.10;56.70
10530;DHT22;5313;48.834;9.228;2023-06-14T12:25:34;27.50;53.60
10530;DHT22;5313;48.834;9.228;2023-06-14T12:28:08;26.60;54.30
10530;DHT22;5313;48.834;9.228;2023-06-14T12:30:35;26.00;55.00
10530;DHT22;5313;48.834;9.228;2023-06-14T12:33:05;26.10;54.90
10530;DHT22;5313;48.834;9.228;2023-06-14T12:35:31;26.40;56.30
10530;DHT22;5313;48.834;9.228;2023-06-14T12:37:56;26.40;56.70
10530;DHT22;5313;48.834;9.228;2023-06-14T12:40:22;27.40;53.50
10530;DHT22;5313;48.834;9.228;2023-06-14T12:42:48;28.50;51.00
10530;DHT22;5313;48.834;9.228;2023-06-14T12:45:14;28.20;51.70
10530;DHT22;5313;48.834;9.228;2023-06-14T12:47:39;26.90;51.00
10530;DHT22;5313;48.834;9.228;2023-06-14T12:50:06;26.30;52.70
10530;DHT22;5313;48.834;9.228;2023-06-14T12:52:32;26.40;53.90
10530;DHT22;5313;48.834;9.228;2023-06-14T12:55:01;27.30;54.60
10530;DHT22;5313;48.834;9.228;2023-06-14T12:57:28;27.30;52.60
10530;DHT22;5313;48.834;9.228;2023-06-14T12:59:53;27.80;53.50
10530;DHT22;5313;48.834;9.228;2023-06-14T13:02:19;27.70;54.10
10530;DHT22;5313;48.834;9.228;2023-06-14T13:04:50;26.70;53.80
10530;DHT22;5313;48.834;9.228;2023-06-14T13:07:16;27.40;53.70
10530;DHT22;5313;48.834;9.228;2023-06-14T13:09:42;27.40;52.50
10530;DHT22;5313;48.834;9.228;2023-06-14T13:12:10;27.60;51.90
10530;DHT22;5313;48.834;9.228;2023-06-14T13:14:36;26.70;52.80
10530;DHT22;5313;48.834;9.228;2023-06-14T13:17:02;27.00;53.10
10530;DHT22;5313;48.834;9.228;2023-06-14T13:19:28;27.10;53.40
10530;DHT22;5313;48.834;9.228;2023-06-14T13:21:53;27.60;52.60
10530;DHT22;5313;48.834;9.228;2023-06-14T13:24:19;28.70;50.10
10530;DHT22;5313;48.834;9.228;2023-06-14T13:26:44;28.70;49.60
10530;DHT22;5313;48.834;9.228;2023-06-14T13:29:10;27.70;50.40
10530;DHT22;5313;48.834;9.228;2023-06-14T13:31:35;27.00;50.70
10530;DHT22;5313;48.834;9.228;2023-06-14T13:34:01;27.50;51.30
10530;DHT22;5313;48.834;9.228;2023-06-14T13:36:27;27.90;50.50
10530;DHT22;5313;48.834;9.228;2023-06-14T13:38:52;28.30;50.20
10530;DHT22;5313;48.834;9.228;2023-06-14T13:41:20;27.90;50.20
10530;DHT22;5313;48.834;9.228;2023-06-14T13:43:46;27.90;50.50
10530;DHT22;5313;48.834;9.228;2023-06-14T13:46:12;29.00;50.50
10530;DHT22;5313;48.834;9.228;2023-06-14T13:48:38;30.40;48.20
10530;DHT22;5313;48.834;9.228;2023-06-14T13:51:03;30.10;47.50
10530;DHT22;5313;48.834;9.228;2023-06-14T13:53:30;29.60;47.50
10530;DHT22;5313;48.834;9.228;2023-06-14T13:55:56;28.60;48.40
10530;DHT22;5313;48.834;9.228;2023-06-14T13:58:22;27.20;49.30
10530;DHT22;5313;48.834;9.228;2023-06-14T14:00:49;27.30;52.10
10530;DHT22;5313;48.834;9.228;2023-06-14T14:03:16;27.70;51.90
10530;DHT22;5313;48.834;9.228;2023-06-14T14:05:42;27.40;51.80
10530;DHT22;5313;48.834;9.228;2023-06-14T14:08:07;27.40;52.30
10530;DHT22;5313;48.834;9.228;2023-06-14T14:10:33;27.80;52.20
10530;DHT22;5313;48.834;9.228;2023-06-14T14:12:58;27.20;52.00
10530;DHT22;5313;48.834;9.228;2023-06-14T14:15:25;27.50;51.50
10530;DHT22;5313;48.834;9.228;2023-06-14T14:17:50;27.10;53.10
10530;DHT22;5313;48.834;9.228;2023-06-14T14:20:16;27.40;52.20
10530;DHT22;5313;48.834;9.228;2023-06-14T14:22:42;27.10;52.80
10530;DHT22;5313;48.834;9.228;2023-06-14T14:25:09;26.40;53.40
10530;DHT22;5313;48.834;9.228;2023-06-14T14:27:34;26.20;53.80
10530;DHT22;5313;48.834;9.228;2023-06-14T14:30:01;26.80;54.10
10530;DHT22;5313;48.834;9.228;2023-06-14T14:32:26;28.00;51.10
10530;DHT22;5313;48.834;9.228;2023-06-14T14:34:52;28.40;50.20
10530;DHT22;5313;48.834;9.228;2023-06-14T14:37:17;28.60;48.20
10530;DHT22;5313;48.834;9.228;2023-06-14T14:39:44;28.40;49.60
10530;DHT22;5313;48.834;9.228;2023-06-14T14:42:10;28.30;49.20
10530;DHT22;5313;48.834;9.228;2023-06-14T14:44:38;28.00;50.00
10530;DHT22;5313;48.834;9.228;2023-06-14T14:47:03;27.70;49.90
10530;DHT22;5313;48.834;9.228;2023-06-14T14:49:30;29.00;48.50
10530;DHT22;5313;48.834;9.228;2023-06-14T14:51:56;28.00;49.10
10530;DHT22;5313;48.834;9.228;2023-06-14T14:54:22;28.00;51.40
10530;DHT22;5313;48.834;9.228;2023-06-14T14:56:48;27.60;50.60
10530;DHT22;5313;48.834;9.228;2023-06-14T14:59:14;27.50;51.40
10530;DHT22;5313;48.834;9.228;2023-06-14T15:01:39;27.30;50.90
10530;DHT22;5313;48.834;9.228;2023-06-14T15:04:05;27.50;50.90
10530;DHT22;5313;48.834;9.228;2023-06-14T15:06:31;27.70;51.40
10530;DHT22;5313;48.834;9.228;2023-06-14T15:08:56;27.70;50.70
10530;DHT22;5313;48.834;9.228;2023-06-14T15:11:22;27.30;51.10
10530;DHT22;5313;48.834;9.228;2023-06-14T15:13:48;27.70;51.70
10530;DHT22;5313;48.834;9.228;2023-06-14T15:16:14;27.50;50.90
10530;DHT22;5313;48.834;9.228;2023-06-14T15:18:40;27.40;51.80
10530;DHT22;5313;48.834;9.228;2023-06-14T15:21:05;27.20;51.10
10530;DHT22;5313;48.834;9.228;2023-06-14T15:23:31;26.30;51.30
10530;DHT22;5313;48.834;9.228;2023-06-14T15:25:56;25.50;52.90
10530;DHT22;5313;48.834;9.228;2023-06-14T15:28:23;25.30;53.40
10530;DHT22;5313;48.834;9.228;2023-06-14T15:30:49;25.70;53.20
10530;DHT22;5313;48.834;9.228;2023-06-14T15:33:15;25.70;52.50
10530;DHT22;5313;48.834;9.228;2023-06-14T15:35:40;25.70;52.50
10530;DHT22;5313;48.834;9.228;2023-06-14T15:38:06;25.20;52.90
10530;DHT22;5313;48.834;9.228;2023-06-14T15:40:31;25.00;52.90
10530;DHT22;5313;48.834;9.228;2023-06-14T15:42:57;25.10;53.60
10530;DHT22;5313;48.834;9.228;2023-06-14T15:45:22;25.20;53.40
10530;DHT22;5313;48.834;9.228;2023-06-14T15:47:48;25.10;53.10
10530;DHT22;5313;48.834;9.228;2023-06-14T15:50:13;25.30;52.60
10530;DHT22;5313;48.834;9.228;2023-06-14T15:52:39;25.90;53.10